createdAt,value
2022-09-14T00:01:08.239Z,64.10
2022-09-14T00:01:51.380Z,57.30
2022-09-14T00:02:49.961Z,72.60
2022-09-14T00:03:49.843Z,63.20
2022-09-14T00:04:49.808Z,62.10
2022-09-14T00:05:49.801Z,65.60
2022-09-14T00:06:50.183Z,57.60
2022-09-14T00:07:49.771Z,62.80
2022-09-14T00:08:49.805Z,61.50
2022-09-14T00:09:49.751Z,64.70
2022-09-14T00:10:49.740Z,68.70
2022-09-14T00:11:49.721Z,65.30
2022-09-14T00:12:50.070Z,68.40
2022-09-14T00:13:49.761Z,69.40
2022-09-14T00:14:49.680Z,61.60
2022-09-14T00:15:49.669Z,59.10
2022-09-14T00:16:49.736Z,64.80
2022-09-14T00:17:49.643Z,60.10
2022-09-14T00:18:50.037Z,63.20
2022-09-14T00:19:49.620Z,66.20
2022-09-14T00:20:49.596Z,68.10
2022-09-14T00:21:49.604Z,63.80
2022-09-14T00:22:49.579Z,69.70
2022-09-14T00:23:49.560Z,62.60
2022-09-14T00:24:49.978Z,70.40
2022-09-14T00:25:49.538Z,60.50
2022-09-14T00:26:49.518Z,63.70
2022-09-14T00:27:49.508Z,69.90
2022-09-14T00:28:49.552Z,67.30
2022-09-14T00:29:49.494Z,70.10
2022-09-14T00:30:49.895Z,60.80
2022-09-14T00:31:49.542Z,64.80
2022-09-14T00:32:49.446Z,71.80
2022-09-14T00:33:49.500Z,70.90
2022-09-14T00:34:49.799Z,69.50
2022-09-14T00:35:49.407Z,62.80
2022-09-14T00:36:49.395Z,64.50
2022-09-14T00:37:49.377Z,73.40
2022-09-14T00:38:49.375Z,73.00
2022-09-14T00:39:49.403Z,64.10
2022-09-14T00:40:49.686Z,73.60
2022-09-14T00:41:49.334Z,73.90
2022-09-14T00:42:49.315Z,68.40
2022-09-14T00:43:49.382Z,73.50
2022-09-14T00:44:49.285Z,77.80
2022-09-14T00:45:49.754Z,75.70
2022-09-14T00:46:49.296Z,77.10
2022-09-14T00:47:49.257Z,68.70
2022-09-14T00:48:49.310Z,68.80
2022-09-14T00:49:49.233Z,72.20
2022-09-14T00:50:49.219Z,71.30
2022-09-14T00:51:49.624Z,73.20
2022-09-14T00:52:49.200Z,69.50
2022-09-14T00:53:49.184Z,78.60
2022-09-14T00:54:49.162Z,76.00
2022-09-14T00:55:49.147Z,75.60
2022-09-14T00:56:49.135Z,74.10
2022-09-14T00:57:49.476Z,65.20
2022-09-14T00:58:49.095Z,67.00
2022-09-14T00:59:49.095Z,61.60
2022-09-14T01:00:49.121Z,68.10
2022-09-14T01:01:49.101Z,73.90
2022-09-14T01:02:49.479Z,76.50
2022-09-14T01:03:49.044Z,81.30
2022-09-14T01:04:49.025Z,74.20
2022-09-14T01:05:49.015Z,72.20
2022-09-14T01:06:49.007Z,69.20
2022-09-14T01:07:49.433Z,63.30
2022-09-14T01:08:49.044Z,66.40
2022-09-14T01:09:48.963Z,77.40
2022-09-14T01:10:48.947Z,70.20
2022-09-14T01:11:51.691Z,72.80
2022-09-14T01:12:48.922Z,68.50
2022-09-14T01:13:49.324Z,74.10
2022-09-14T01:14:48.894Z,73.60
2022-09-14T01:15:48.882Z,73.60
2022-09-14T01:16:48.901Z,75.70
2022-09-14T01:17:48.892Z,77.70
2022-09-14T01:18:48.846Z,77.40
2022-09-14T01:19:49.206Z,77.40
2022-09-14T01:20:48.821Z,76.00
2022-09-14T01:21:48.811Z,81.90
2022-09-14T01:22:48.793Z,78.90
2022-09-14T01:23:48.791Z,75.60
2022-09-14T01:24:48.780Z,73.70
2022-09-14T01:25:49.184Z,70.10
2022-09-14T01:26:48.742Z,74.00
2022-09-14T01:27:48.730Z,79.70
2022-09-14T01:28:48.714Z,73.90
2022-09-14T01:29:48.701Z,77.50
2022-09-14T01:30:49.130Z,74.70
2022-09-14T01:31:48.766Z,72.40
2022-09-14T01:32:48.665Z,80.50
2022-09-14T01:33:48.724Z,78.40
2022-09-14T01:34:49.010Z,77.70
2022-09-14T01:35:48.639Z,86.30
2022-09-14T01:36:48.612Z,86.20
2022-09-14T01:37:48.600Z,87.50
2022-09-14T01:38:48.599Z,85.90
2022-09-14T01:39:48.588Z,93.20
2022-09-14T01:40:48.927Z,90.20
2022-09-14T01:41:48.559Z,87.40
2022-09-14T01:42:48.540Z,92.60
2022-09-14T01:43:48.522Z,100.10
2022-09-14T01:44:48.509Z,92.60
2022-09-14T01:45:48.982Z,103.80
2022-09-14T01:46:48.492Z,93.90
2022-09-14T01:47:48.474Z,104.60
2022-09-14T01:48:48.460Z,102.20
2022-09-14T01:49:48.449Z,99.30
2022-09-14T01:50:48.437Z,97.80
2022-09-14T01:51:48.846Z,86.40
2022-09-14T01:52:48.406Z,88.50
2022-09-14T01:53:48.400Z,102.20
2022-09-14T01:54:48.380Z,98.90
2022-09-14T01:55:48.378Z,104.60
2022-09-14T01:56:48.372Z,100.70
2022-09-14T01:57:48.757Z,98.90
2022-09-14T01:58:48.333Z,99.40
2022-09-14T01:59:48.328Z,107.80
2022-09-14T02:00:48.359Z,103.60
2022-09-14T02:01:50.650Z,97.80
2022-09-14T02:02:48.295Z,103.00
2022-09-14T02:03:48.667Z,95.80
2022-09-14T02:04:48.247Z,102.10
2022-09-14T02:05:48.238Z,101.50
2022-09-14T02:06:48.225Z,104.70
2022-09-14T02:07:48.218Z,102.90
2022-09-14T02:08:48.210Z,88.40
2022-09-14T02:09:48.620Z,92.50
2022-09-14T02:10:48.179Z,112.30
2022-09-14T02:11:48.167Z,100.10
2022-09-14T02:12:48.154Z,95.20
2022-09-14T02:13:48.187Z,97.80
2022-09-14T02:14:48.126Z,101.80
2022-09-14T02:15:48.606Z,105.50
2022-09-14T02:16:48.085Z,111.70
2022-09-14T02:17:48.087Z,106.40
2022-09-14T02:18:48.070Z,107.20
2022-09-14T02:19:48.070Z,117.10
2022-09-14T02:20:48.047Z,117.90
2022-09-14T02:21:48.420Z,106.00
2022-09-14T02:22:48.025Z,105.60
2022-09-14T02:23:48.015Z,108.70
2022-09-14T02:24:48.020Z,105.10
2022-09-14T02:25:47.974Z,101.30
2022-09-14T02:26:48.304Z,104.10
2022-09-14T02:27:47.953Z,113.90
2022-09-14T02:28:47.954Z,108.90
2022-09-14T02:29:47.927Z,104.30
2022-09-14T02:30:47.926Z,105.80
2022-09-14T02:31:47.955Z,115.80
2022-09-14T02:32:48.321Z,105.90
2022-09-14T02:33:47.885Z,110.70
2022-09-14T02:34:47.864Z,104.40
2022-09-14T02:35:47.851Z,108.50
2022-09-14T02:36:47.834Z,121.40
2022-09-14T02:37:47.825Z,109.70
2022-09-14T02:38:48.243Z,113.50
2022-09-14T02:39:47.837Z,110.80
2022-09-14T02:40:47.787Z,105.90
2022-09-14T02:41:47.771Z,110.50
2022-09-14T02:42:47.753Z,117.50
2022-09-14T02:43:47.766Z,112.80
2022-09-14T02:44:48.142Z,101.50
2022-09-14T02:45:47.728Z,105.20
2022-09-14T02:46:47.793Z,103.00
2022-09-14T02:47:47.691Z,104.80
2022-09-14T02:48:47.682Z,103.20
2022-09-14T02:49:47.671Z,109.90
2022-09-14T02:50:48.014Z,111.20
2022-09-14T02:51:47.640Z,119.90
2022-09-14T02:52:47.631Z,120.70
2022-09-14T02:53:47.610Z,114.20
2022-09-14T02:54:47.605Z,114.10
2022-09-14T02:55:48.025Z,110.20
2022-09-14T02:56:47.570Z,117.00
2022-09-14T02:57:47.560Z,104.70
2022-09-14T02:58:47.556Z,118.90
2022-09-14T02:59:47.530Z,126.10
2022-09-14T03:00:47.599Z,112.10
2022-09-14T03:01:47.968Z,108.00
2022-09-14T03:02:47.498Z,106.30
2022-09-14T03:03:47.506Z,120.40
2022-09-14T03:04:47.486Z,116.90
2022-09-14T03:05:47.460Z,124.70
2022-09-14T03:06:47.807Z,121.70
2022-09-14T03:07:47.428Z,128.90
2022-09-14T03:08:47.462Z,124.50
2022-09-14T03:09:47.408Z,117.60
2022-09-14T03:10:47.397Z,113.90
2022-09-14T03:11:47.379Z,111.80
2022-09-14T03:12:47.697Z,118.20
2022-09-14T03:13:47.359Z,122.50
2022-09-14T03:14:47.358Z,113.60
2022-09-14T03:15:47.365Z,118.40
2022-09-14T03:16:47.746Z,105.30
2022-09-14T03:17:47.307Z,113.50
2022-09-14T03:18:47.324Z,112.00
2022-09-14T03:19:47.278Z,120.40
2022-09-14T03:20:47.267Z,106.40
2022-09-14T03:21:47.628Z,114.40
2022-09-14T03:22:47.238Z,111.40
2022-09-14T03:23:47.227Z,111.60
2022-09-14T03:24:47.282Z,122.20
2022-09-14T03:25:47.197Z,116.30
2022-09-14T03:26:47.194Z,99.40
2022-09-14T03:27:47.557Z,101.80
2022-09-14T03:28:47.157Z,108.00
2022-09-14T03:29:47.157Z,98.80
2022-09-14T03:30:47.144Z,92.60
2022-09-14T03:31:47.184Z,112.30
2022-09-14T03:32:47.450Z,102.40
2022-09-14T03:33:47.189Z,112.40
2022-09-14T03:34:47.085Z,101.40
2022-09-14T03:35:47.070Z,107.30
2022-09-14T03:36:47.055Z,106.90
2022-09-14T03:37:47.055Z,101.00
2022-09-14T03:38:47.481Z,112.70
2022-09-14T03:39:47.086Z,113.10
2022-09-14T03:40:47.012Z,110.80
2022-09-14T03:41:46.996Z,102.70
2022-09-14T03:42:46.985Z,103.40
2022-09-14T03:43:46.968Z,98.90
2022-09-14T03:44:47.374Z,103.50
2022-09-14T03:45:46.942Z,100.80
2022-09-14T03:46:47.034Z,96.50
2022-09-14T03:47:46.917Z,93.50
2022-09-14T03:48:46.904Z,104.70
2022-09-14T03:49:46.891Z,111.90
2022-09-14T03:50:47.305Z,105.90
2022-09-14T03:51:46.877Z,106.00
2022-09-14T03:52:46.863Z,107.70
2022-09-14T03:53:46.845Z,102.30
2022-09-14T03:54:46.823Z,107.00
2022-09-14T03:55:47.233Z,97.80
2022-09-14T03:56:46.804Z,106.50
2022-09-14T03:57:46.799Z,110.00
2022-09-14T03:58:46.790Z,108.40
2022-09-14T03:59:46.760Z,114.30
2022-09-14T04:00:46.759Z,111.50
2022-09-14T04:01:47.198Z,92.70
2022-09-14T04:02:46.789Z,108.50
2022-09-14T04:03:46.712Z,108.80
2022-09-14T04:04:46.702Z,105.50
2022-09-14T04:05:46.683Z,111.80
2022-09-14T04:06:46.672Z,110.30
2022-09-14T04:07:47.012Z,116.40
2022-09-14T04:08:46.698Z,108.60
2022-09-14T04:09:46.631Z,122.60
2022-09-14T04:10:46.622Z,113.00
2022-09-14T04:11:46.608Z,105.60
2022-09-14T04:12:46.991Z,110.70
2022-09-14T04:13:46.614Z,102.50
2022-09-14T04:14:46.572Z,112.50
2022-09-14T04:15:46.584Z,110.30
2022-09-14T04:16:46.548Z,109.40
2022-09-14T04:17:46.528Z,106.20
2022-09-14T04:18:46.820Z,102.50
2022-09-14T04:19:46.510Z,122.00
2022-09-14T04:20:46.489Z,110.10
2022-09-14T04:21:46.498Z,106.10
2022-09-14T04:22:46.909Z,99.10
2022-09-14T04:24:13.221Z,102.30
2022-09-14T04:24:47.440Z,107.60
2022-09-14T04:25:46.423Z,108.20
2022-09-14T04:26:46.420Z,115.30
2022-09-14T04:27:55.130Z,92.60
2022-09-14T04:28:47.440Z,120.20
2022-09-14T04:29:46.373Z,118.50
2022-09-14T04:30:46.368Z,121.00
2022-09-14T04:31:46.383Z,115.70
2022-09-14T04:32:46.341Z,101.20
2022-09-14T04:33:46.350Z,94.20
2022-09-14T04:34:46.621Z,121.20
2022-09-14T04:35:46.337Z,104.60
2022-09-14T04:36:46.283Z,109.40
2022-09-14T04:37:46.281Z,95.20
2022-09-14T04:38:46.265Z,123.50
2022-09-14T04:39:46.293Z,104.90
2022-09-14T04:40:46.620Z,100.70
2022-09-14T04:41:46.217Z,97.00
2022-09-14T04:42:46.208Z,117.30
2022-09-14T04:43:46.195Z,125.30
2022-09-14T04:44:46.487Z,120.40
2022-09-14T04:45:46.168Z,116.40
2022-09-14T04:46:47.107Z,119.90
2022-09-14T04:47:46.136Z,107.10
2022-09-14T04:48:46.127Z,118.40
2022-09-14T04:49:46.114Z,120.00
2022-09-14T04:50:46.416Z,113.00
2022-09-14T04:51:46.088Z,114.30
2022-09-14T04:52:46.078Z,108.80
2022-09-14T04:53:46.057Z,121.80
2022-09-14T04:54:46.046Z,125.30
2022-09-14T04:55:46.077Z,119.60
2022-09-14T04:56:46.025Z,118.80
2022-09-14T04:57:46.006Z,109.60
2022-09-14T04:58:50.688Z,113.10
2022-09-14T04:59:46.986Z,129.80
2022-09-14T05:00:45.974Z,123.50
2022-09-14T05:01:46.533Z,123.50
2022-09-14T05:02:46.026Z,104.50
2022-09-14T05:03:45.939Z,116.60
2022-09-14T05:04:45.946Z,119.80
2022-09-14T05:05:45.915Z,116.00
2022-09-14T05:06:45.904Z,108.30
2022-09-14T05:07:46.313Z,113.20
2022-09-14T05:08:45.881Z,115.80
2022-09-14T05:09:45.866Z,109.70
2022-09-14T05:10:45.851Z,113.10
2022-09-14T05:11:45.837Z,118.20
2022-09-14T05:12:45.823Z,116.90
2022-09-14T05:13:49.749Z,116.20
2022-09-14T05:14:45.796Z,108.30
2022-09-14T05:15:45.840Z,120.50
2022-09-14T05:16:45.771Z,120.90
2022-09-14T05:17:45.764Z,130.20
2022-09-14T05:18:45.753Z,113.50
2022-09-14T05:19:46.170Z,118.20
2022-09-14T05:20:45.725Z,114.80
2022-09-14T05:21:45.697Z,116.60
2022-09-14T05:22:45.701Z,116.80
2022-09-14T05:23:45.691Z,122.00
2022-09-14T05:24:45.672Z,127.90
2022-09-14T05:25:46.082Z,115.70
2022-09-14T05:26:45.648Z,113.30
2022-09-14T05:27:45.640Z,115.80
2022-09-14T05:28:45.618Z,116.70
2022-09-14T05:29:45.599Z,116.00
2022-09-14T05:30:45.658Z,106.40
2022-09-14T05:31:45.892Z,119.60
2022-09-14T05:32:45.563Z,124.50
2022-09-14T05:33:45.549Z,115.80
2022-09-14T05:34:45.553Z,123.20
2022-09-14T05:35:45.525Z,124.40
2022-09-14T05:36:45.514Z,112.10
2022-09-14T05:37:45.941Z,117.10
2022-09-14T05:38:45.499Z,128.40
2022-09-14T05:39:45.547Z,106.00
2022-09-14T05:40:45.470Z,107.90
2022-09-14T05:41:45.564Z,111.90
2022-09-14T05:42:45.888Z,116.90
2022-09-14T05:43:45.419Z,122.90
2022-09-14T05:44:45.412Z,110.10
2022-09-14T05:45:45.400Z,122.40
2022-09-14T05:46:45.432Z,110.40
2022-09-14T05:47:45.377Z,112.80
2022-09-14T05:48:45.811Z,108.50
2022-09-14T05:49:45.342Z,121.90
2022-09-14T05:50:45.341Z,113.70
2022-09-14T05:51:45.322Z,119.80
2022-09-14T05:52:45.772Z,114.20
2022-09-14T05:53:45.290Z,113.10
2022-09-14T05:54:45.293Z,121.20
2022-09-14T05:55:45.280Z,112.90
2022-09-14T05:56:45.265Z,106.00
2022-09-14T05:57:45.586Z,120.90
2022-09-14T05:58:45.230Z,116.50
2022-09-14T05:59:45.220Z,121.60
2022-09-14T06:00:45.210Z,122.70
2022-09-14T06:01:45.285Z,130.10
2022-09-14T06:02:45.185Z,126.40
2022-09-14T06:03:45.610Z,127.10
2022-09-14T06:04:45.150Z,115.20
2022-09-14T06:05:45.201Z,123.90
2022-09-14T06:06:56.168Z,113.80
2022-09-14T06:07:46.117Z,128.30
2022-09-14T06:08:45.122Z,130.30
2022-09-14T06:09:45.547Z,135.60
2022-09-14T06:10:45.075Z,117.10
2022-09-14T06:11:45.066Z,109.80
2022-09-14T06:12:45.049Z,117.70
2022-09-14T06:13:45.037Z,117.70
2022-09-14T06:14:45.025Z,123.10
2022-09-14T06:15:45.449Z,130.60
2022-09-14T06:16:45.005Z,124.60
2022-09-14T06:17:44.987Z,128.80
2022-09-14T06:18:44.974Z,126.60
2022-09-14T06:19:44.960Z,130.70
2022-09-14T06:20:44.961Z,127.40
2022-09-14T06:21:45.385Z,122.10
2022-09-14T06:22:44.925Z,132.40
2022-09-14T06:23:44.910Z,137.50
2022-09-14T06:24:44.897Z,120.20
2022-09-14T06:25:44.877Z,118.50
2022-09-14T06:26:44.870Z,132.40
2022-09-14T06:27:45.205Z,127.40
2022-09-14T06:28:44.848Z,129.40
2022-09-14T06:29:44.826Z,123.60
2022-09-14T06:30:44.819Z,153.10
2022-09-14T06:31:44.818Z,139.00
2022-09-14T06:32:45.255Z,140.70
2022-09-14T06:33:44.780Z,138.10
2022-09-14T06:34:44.780Z,129.50
2022-09-14T06:35:44.758Z,133.30
2022-09-14T06:36:44.743Z,156.10
2022-09-14T06:37:44.734Z,147.40
2022-09-14T06:38:45.171Z,139.80
2022-09-14T06:39:44.756Z,140.60
2022-09-14T06:40:44.695Z,138.50
2022-09-14T06:41:44.677Z,142.90
2022-09-14T06:42:44.658Z,143.00
2022-09-14T06:43:44.656Z,151.90
2022-09-14T06:44:44.987Z,133.10
2022-09-14T06:45:44.626Z,137.70
2022-09-14T06:46:47.474Z,137.70
2022-09-14T06:47:44.596Z,151.20
2022-09-14T06:48:44.587Z,144.30
2022-09-14T06:49:44.573Z,151.90
2022-09-14T06:50:44.911Z,130.40
2022-09-14T06:51:44.553Z,138.30
2022-09-14T06:52:44.533Z,134.20
2022-09-14T06:53:44.521Z,145.60
2022-09-14T06:54:44.514Z,138.40
2022-09-14T06:55:44.924Z,131.10
2022-09-14T06:56:44.485Z,136.70
2022-09-14T06:57:44.472Z,137.70
2022-09-14T06:58:44.453Z,136.30
2022-09-14T06:59:44.454Z,140.50
2022-09-14T07:00:44.794Z,136.30
2022-09-14T07:01:44.422Z,137.10
2022-09-14T07:02:44.502Z,137.80
2022-09-14T07:03:44.394Z,145.20
2022-09-14T07:04:44.384Z,136.80
2022-09-14T07:05:44.801Z,141.60
2022-09-14T07:06:44.357Z,158.70
2022-09-14T07:07:44.345Z,145.80
2022-09-14T07:08:44.462Z,141.70
2022-09-14T07:09:44.317Z,136.80
2022-09-14T07:10:44.655Z,134.80
2022-09-14T07:11:44.302Z,146.70
2022-09-14T07:12:44.275Z,142.80
2022-09-14T07:13:44.273Z,136.00
2022-09-14T07:14:44.254Z,131.00
2022-09-14T07:15:44.773Z,126.60
2022-09-14T07:16:44.226Z,125.30
2022-09-14T07:17:44.212Z,129.40
2022-09-14T07:18:44.271Z,116.90
2022-09-14T07:19:44.194Z,133.80
2022-09-14T07:20:44.182Z,128.40
2022-09-14T07:21:44.552Z,122.10
2022-09-14T07:22:44.152Z,128.20
2022-09-14T07:23:44.151Z,124.70
2022-09-14T07:24:44.123Z,133.00
2022-09-14T07:25:44.110Z,127.40
2022-09-14T07:26:44.091Z,130.40
2022-09-14T07:27:44.523Z,123.70
2022-09-14T07:28:44.069Z,124.80
2022-09-14T07:29:44.065Z,113.20
2022-09-14T07:30:44.068Z,119.20
2022-09-14T07:31:44.482Z,121.70
2022-09-14T07:32:44.012Z,127.20
2022-09-14T07:33:44.068Z,118.90
2022-09-14T07:34:43.991Z,125.20
2022-09-14T07:35:43.983Z,116.30
2022-09-14T07:36:43.975Z,110.40
2022-09-14T07:37:44.272Z,122.30
2022-09-14T07:38:53.009Z,113.80
2022-09-14T07:39:44.983Z,109.60
2022-09-14T07:40:43.913Z,107.30
2022-09-14T07:41:43.904Z,108.20
2022-09-14T07:42:43.893Z,117.70
2022-09-14T07:43:44.257Z,110.50
2022-09-14T07:44:43.874Z,115.60
2022-09-14T07:45:43.924Z,115.10
2022-09-14T07:46:43.841Z,116.70
2022-09-14T07:47:43.831Z,120.40
2022-09-14T07:48:44.301Z,113.40
2022-09-14T07:49:43.872Z,123.80
2022-09-14T07:50:43.797Z,119.90
2022-09-14T07:51:43.790Z,123.50
2022-09-14T07:52:44.182Z,117.50
2022-09-14T07:53:43.749Z,124.50
2022-09-14T07:54:43.743Z,101.40
2022-09-14T07:55:43.734Z,110.80
2022-09-14T07:56:43.721Z,120.50
2022-09-14T07:57:55.687Z,124.40
2022-09-14T07:58:45.044Z,100.80
2022-09-14T07:59:43.682Z,106.70
2022-09-14T08:00:43.667Z,108.40
2022-09-14T08:01:43.723Z,110.10
2022-09-14T08:02:43.682Z,110.90
2022-09-14T08:03:44.109Z,102.80
2022-09-14T08:04:43.603Z,104.40
2022-09-14T08:05:43.602Z,102.10
2022-09-14T08:06:43.581Z,103.80
2022-09-14T08:07:43.574Z,96.20
2022-09-14T08:08:43.874Z,101.30
2022-09-14T08:09:43.551Z,101.90
2022-09-14T08:10:43.535Z,100.90
2022-09-14T08:11:43.524Z,92.90
2022-09-14T08:12:43.515Z,99.10
2022-09-14T08:13:43.852Z,100.10
2022-09-14T08:14:43.481Z,98.20
2022-09-14T08:15:43.481Z,103.30
2022-09-14T08:16:43.639Z,111.50
2022-09-14T08:17:43.449Z,88.00
2022-09-14T08:18:43.537Z,106.00
2022-09-14T08:19:43.871Z,95.70
2022-09-14T08:20:43.413Z,92.70
2022-09-14T08:21:46.948Z,95.70
2022-09-14T08:22:43.382Z,98.90
2022-09-14T08:23:43.378Z,104.80
2022-09-14T08:24:43.710Z,95.00
2022-09-14T08:25:43.352Z,95.50
2022-09-14T08:26:43.331Z,101.10
2022-09-14T08:27:43.326Z,103.10
2022-09-14T08:28:43.756Z,90.70
2022-09-14T08:29:43.291Z,112.50
2022-09-14T08:30:43.281Z,100.80
2022-09-14T08:31:43.389Z,85.60
2022-09-14T08:32:43.252Z,95.00
2022-09-14T08:33:43.250Z,103.90
2022-09-14T08:34:43.668Z,95.10
2022-09-14T08:35:57.309Z,93.00
2022-09-14T08:36:44.201Z,105.60
2022-09-14T08:37:43.193Z,95.60
2022-09-14T08:38:43.181Z,99.80
2022-09-14T08:39:45.354Z,105.80
2022-09-14T08:40:43.163Z,93.60
2022-09-14T08:41:43.142Z,91.70
2022-09-14T08:42:43.124Z,89.20
2022-09-14T08:43:43.200Z,101.70
2022-09-14T08:44:43.550Z,107.40
2022-09-14T08:45:43.160Z,114.50
2022-09-14T08:46:43.072Z,104.30
2022-09-14T08:47:43.069Z,101.40
2022-09-14T08:48:43.056Z,108.00
2022-09-14T08:49:43.302Z,94.60
2022-09-14T08:50:43.013Z,95.50
2022-09-14T08:51:43.012Z,96.60
2022-09-14T08:52:43.002Z,90.30
2022-09-14T08:53:42.985Z,107.30
2022-09-14T08:54:43.281Z,103.60
2022-09-14T08:55:42.962Z,101.00
2022-09-14T08:56:42.951Z,101.80
2022-09-14T08:57:42.934Z,98.20
2022-09-14T08:58:48.085Z,107.70
2022-09-14T08:59:44.352Z,99.50
2022-09-14T09:00:42.936Z,97.60
2022-09-14T09:01:42.882Z,99.90
2022-09-14T09:02:42.873Z,105.40
2022-09-14T09:03:42.954Z,100.90
2022-09-14T09:04:43.075Z,102.30
2022-09-14T09:05:42.833Z,102.80
2022-09-14T09:06:42.822Z,86.70
2022-09-14T09:07:42.809Z,100.20
2022-09-14T09:08:42.795Z,93.00
2022-09-14T09:09:43.099Z,88.10
2022-09-14T09:10:42.764Z,91.90
2022-09-14T09:11:42.761Z,102.60
2022-09-14T09:12:42.742Z,91.60
2022-09-14T09:13:42.734Z,100.20
2022-09-14T09:14:43.014Z,91.60
2022-09-14T09:15:42.712Z,100.10
2022-09-14T09:16:42.778Z,93.60
2022-09-14T09:17:42.682Z,93.20
2022-09-14T09:18:42.774Z,83.50
2022-09-14T09:19:42.896Z,90.50
2022-09-14T09:20:42.642Z,94.70
2022-09-14T09:21:42.638Z,93.00
2022-09-14T09:22:42.613Z,99.60
2022-09-14T09:23:42.615Z,94.70
2022-09-14T09:24:42.898Z,93.80
2022-09-14T09:25:42.580Z,102.20
2022-09-14T09:26:42.574Z,97.30
2022-09-14T09:27:42.563Z,95.60
2022-09-14T09:28:42.545Z,86.50
2022-09-14T09:29:42.762Z,82.70
2022-09-14T09:30:42.513Z,72.20
2022-09-14T09:31:42.543Z,79.20
2022-09-14T09:32:42.492Z,74.70
2022-09-14T09:33:42.479Z,86.50
2022-09-14T09:34:42.901Z,93.50
2022-09-14T09:35:42.459Z,74.20
2022-09-14T09:36:42.441Z,80.20
2022-09-14T09:37:42.431Z,86.80
2022-09-14T09:38:42.419Z,72.70
2022-09-14T09:39:42.445Z,75.30
2022-09-14T09:40:42.839Z,74.60
2022-09-14T09:41:42.382Z,90.40
2022-09-14T09:42:42.365Z,80.60
2022-09-14T09:43:49.311Z,75.60
2022-09-14T09:44:43.338Z,76.40
2022-09-14T09:45:42.750Z,71.60
2022-09-14T09:46:42.373Z,73.30
2022-09-14T09:47:42.304Z,67.70
2022-09-14T09:48:42.308Z,81.40
2022-09-14T09:49:42.283Z,71.30
2022-09-14T09:50:42.730Z,74.30
2022-09-14T09:51:42.259Z,74.30
2022-09-14T09:52:42.239Z,73.50
2022-09-14T09:53:42.234Z,71.00
2022-09-14T09:54:42.211Z,76.20
2022-09-14T09:55:42.633Z,71.10
2022-09-14T09:56:42.181Z,73.30
2022-09-14T09:57:42.178Z,76.10
2022-09-14T09:58:42.163Z,69.20
2022-09-14T09:59:42.152Z,68.80
2022-09-14T10:00:42.566Z,69.50
2022-09-14T10:01:42.286Z,67.50
2022-09-14T10:02:42.110Z,66.90
2022-09-14T10:03:42.098Z,71.60
2022-09-14T10:04:42.492Z,77.90
2022-09-14T10:05:42.084Z,50.20
2022-09-14T10:06:42.072Z,56.00
2022-09-14T10:07:42.062Z,69.00
2022-09-14T10:08:42.034Z,53.50
2022-09-14T10:09:42.029Z,62.30
2022-09-14T10:10:42.312Z,45.00
2022-09-14T10:11:42.004Z,45.40
2022-09-14T10:12:41.983Z,50.20
2022-09-14T10:13:42.181Z,46.00
2022-09-14T10:14:41.960Z,63.40
2022-09-14T10:15:42.333Z,45.10
2022-09-14T10:16:41.932Z,44.50
2022-09-14T10:17:41.921Z,54.20
2022-09-14T10:18:44.447Z,44.00
2022-09-14T10:19:42.892Z,48.30
2022-09-14T10:20:42.315Z,42.10
2022-09-14T10:21:41.891Z,43.90
2022-09-14T10:22:41.851Z,49.80
2022-09-14T10:23:41.850Z,45.10
2022-09-14T10:24:41.831Z,41.90
2022-09-14T10:25:42.152Z,41.50
2022-09-14T10:26:41.799Z,44.40
2022-09-14T10:27:41.796Z,37.40
2022-09-14T10:28:41.775Z,44.20
2022-09-14T10:29:41.768Z,41.00
2022-09-14T10:30:42.172Z,36.00
2022-09-14T10:31:41.766Z,49.60
2022-09-14T10:32:41.755Z,40.00
2022-09-14T10:33:41.711Z,35.90
2022-09-14T10:34:41.701Z,39.40
2022-09-14T10:35:42.131Z,40.30
2022-09-14T10:36:41.679Z,40.50
2022-09-14T10:37:41.660Z,49.80
2022-09-14T10:38:41.694Z,37.90
2022-09-14T10:39:41.643Z,37.90
2022-09-14T10:40:42.062Z,41.00
2022-09-14T10:41:41.610Z,39.30
2022-09-14T10:42:41.604Z,35.80
2022-09-14T10:43:41.593Z,39.50
2022-09-14T10:44:41.573Z,35.50
2022-09-14T10:45:41.944Z,37.60
2022-09-14T10:46:41.613Z,31.30
2022-09-14T10:47:41.542Z,31.70
2022-09-14T10:48:41.532Z,36.60
2022-09-14T10:49:41.537Z,38.40
2022-09-14T10:50:41.942Z,41.10
2022-09-14T10:51:41.492Z,36.20
2022-09-14T10:52:41.480Z,39.10
2022-09-14T10:53:41.462Z,38.90
2022-09-14T10:54:41.462Z,41.50
2022-09-14T10:55:41.881Z,37.70
2022-09-14T10:56:41.433Z,32.10
2022-09-14T10:57:41.413Z,31.20
2022-09-14T10:58:41.414Z,29.20
2022-09-14T10:59:41.392Z,31.70
2022-09-14T11:00:41.765Z,32.60
2022-09-14T11:01:41.450Z,36.90
2022-09-14T11:02:41.438Z,28.70
2022-09-14T11:03:45.741Z,36.20
2022-09-14T11:04:41.333Z,33.60
2022-09-14T11:05:41.743Z,30.40
2022-09-14T11:06:41.307Z,34.60
2022-09-14T11:07:41.298Z,37.60
2022-09-14T11:08:41.292Z,32.20
2022-09-14T11:09:41.269Z,34.70
2022-09-14T11:10:41.342Z,26.50
2022-09-14T11:11:41.245Z,31.80
2022-09-14T11:12:41.233Z,32.60
2022-09-14T11:13:41.213Z,37.70
2022-09-14T11:14:41.213Z,36.40
2022-09-14T11:15:41.644Z,28.30
2022-09-14T11:16:41.210Z,29.30
2022-09-14T11:17:41.173Z,33.60
2022-09-14T11:18:41.163Z,29.70
2022-09-14T11:19:41.143Z,33.70
2022-09-14T11:20:42.793Z,37.60
2022-09-14T11:21:41.452Z,33.80
2022-09-14T11:22:41.104Z,28.90
2022-09-14T11:23:41.094Z,29.80
2022-09-14T11:24:41.074Z,35.10
2022-09-14T11:25:41.075Z,37.30
2022-09-14T11:26:42.454Z,38.90
2022-09-14T11:27:41.045Z,34.40
2022-09-14T11:28:41.077Z,35.80
2022-09-14T11:29:41.016Z,42.80
2022-09-14T11:30:41.136Z,38.10
2022-09-14T11:31:41.375Z,29.20
2022-09-14T11:32:40.995Z,31.70
2022-09-14T11:33:40.983Z,29.20
2022-09-14T11:34:40.957Z,32.90
2022-09-14T11:35:40.941Z,36.10
2022-09-14T11:36:41.382Z,36.20
2022-09-14T11:37:40.936Z,36.70
2022-09-14T11:38:40.911Z,35.40
2022-09-14T11:39:40.894Z,39.10
2022-09-14T11:40:41.333Z,33.60
2022-09-14T11:41:40.877Z,43.50
2022-09-14T11:42:40.865Z,37.40
2022-09-14T11:43:40.843Z,37.60
2022-09-14T11:44:40.825Z,32.20
2022-09-14T11:45:41.231Z,30.40
2022-09-14T11:46:40.879Z,33.00
2022-09-14T11:47:40.791Z,36.80
2022-09-14T11:48:43.441Z,31.70
2022-09-14T11:49:40.782Z,28.20
2022-09-14T11:50:41.206Z,30.80
2022-09-14T11:51:40.744Z,29.20
2022-09-14T11:52:40.735Z,22.20
2022-09-14T11:53:40.724Z,25.20
2022-09-14T11:54:44.597Z,25.10
2022-09-14T11:55:42.043Z,28.60
2022-09-14T11:56:40.684Z,25.50
2022-09-14T11:57:40.668Z,27.60
2022-09-14T11:58:40.760Z,19.90
2022-09-14T11:59:40.662Z,20.30
2022-09-14T12:00:40.639Z,21.30
2022-09-14T12:01:41.052Z,22.10
2022-09-14T12:02:40.649Z,23.30
2022-09-14T12:03:40.667Z,23.00
2022-09-14T12:04:40.592Z,22.50
2022-09-14T12:05:40.564Z,23.60
2022-09-14T12:06:40.995Z,21.30
2022-09-14T12:07:40.560Z,27.40
2022-09-14T12:08:40.543Z,26.10
2022-09-14T12:09:40.516Z,23.90
2022-09-14T12:10:45.315Z,23.40
2022-09-14T12:11:41.497Z,23.30
2022-09-14T12:12:40.482Z,24.10
2022-09-14T12:13:40.536Z,23.50
2022-09-14T12:14:40.457Z,28.10
2022-09-14T12:15:40.893Z,23.30
2022-09-14T12:16:40.435Z,29.00
2022-09-14T12:17:41.098Z,23.30
2022-09-14T12:18:40.406Z,27.50
2022-09-14T12:19:40.407Z,21.20
2022-09-14T12:20:40.406Z,18.60
2022-09-14T12:21:40.765Z,27.10
2022-09-14T12:22:40.363Z,24.90
2022-09-14T12:23:40.343Z,23.10
2022-09-14T12:24:40.337Z,21.50
2022-09-14T12:25:40.326Z,25.90
2022-09-14T12:26:40.757Z,24.50
2022-09-14T12:27:40.293Z,27.30
2022-09-14T12:28:40.288Z,21.90
2022-09-14T12:29:40.277Z,26.10
2022-09-14T12:30:41.076Z,33.20
2022-09-14T12:31:40.712Z,24.10
2022-09-14T12:32:40.239Z,26.10
2022-09-14T12:33:40.247Z,26.70
2022-09-14T12:34:40.217Z,29.40
2022-09-14T12:35:40.202Z,28.30
2022-09-14T12:36:40.629Z,31.40
2022-09-14T12:37:40.175Z,28.50
2022-09-14T12:38:40.155Z,31.10
2022-09-14T12:39:40.136Z,30.50
2022-09-14T12:40:40.146Z,39.00